Zellwood, Florida
Current Conditions -  °F | °C
As of 6:53 PM on Thursday 27 Nov 2014 (Local Time) from KLEE Reporting Station
Clear Clear  
Wind Chill: 55°   Ceiling: Unl
Heat Index: 55°   Visibility: 10mi
Dew Point: 40°   Wind: 6mph
Humidity: 57%   Direction: 330°NNW
Pressure: 30.25"   Gusts: NA
Location:  28.73°N, 81.6°W
Report Text: KLEE 272353Z 33005KT 10SM CLR 13/04 A3025 RMK AO2 SLP244 T01280044 10200 20122 53021
Loading
Personal Weather Stations






























Interactive Weather Map New forecast layout! Learn more

10-Day Weather Forecast

Advertisements
Track Severe Weather on mobile